Time;durP1;ratioP1;P1;durP2;ratioP2;P2;SDS_P1;SDS_P2;PMS_P1;PMS_P2;Temp;Humidity;BMP_temperature;BMP_pressure;BME280_temperature;BME280_humidity;BME280_pressure;Samples;Min_cycle;Max_cycle;Signal;HPM_P1;HPM_P2
2023/05/18 00:02:15;;;;;;;6.35;3.70;;;16.40;52.50;;;;;;4939902;28;20043;-82
2023/05/18 00:04:41;;;;;;;6.15;3.97;;;16.40;52.50;;;;;;4932193;29;20043;-82
2023/05/18 00:07:08;;;;;;;6.07;3.88;;;16.30;52.40;;;;;;4945111;28;20058;-84
2023/05/18 00:09:36;;;;;;;7.30;4.72;;;16.30;52.50;;;;;;4946690;28;20027;-85
2023/05/18 00:12:03;;;;;;;5.07;3.80;;;16.30;52.60;;;;;;4942807;28;20447;-85
2023/05/18 00:14:30;;;;;;;5.43;3.88;;;16.30;52.70;;;;;;4939723;28;20057;-83
2023/05/18 00:16:57;;;;;;;8.48;4.50;;;16.30;52.80;;;;;;4943677;28;20258;-83
2023/05/18 00:19:23;;;;;;;5.35;4.53;;;16.20;52.70;;;;;;4946354;28;20125;-82
2023/05/18 00:21:51;;;;;;;5.55;4.38;;;16.20;52.70;;;;;;4945969;28;20035;-83
2023/05/18 00:24:18;;;;;;;8.23;3.92;;;16.20;52.90;;;;;;4957167;28;20653;-84
2023/05/18 00:26:45;;;;;;;7.25;4.70;;;16.20;52.90;;;;;;4926735;29;20031;-83
2023/05/18 00:29:12;;;;;;;5.03;4.05;;;16.20;53.00;;;;;;4935524;28;20384;-85
2023/05/18 00:31:38;;;;;;;7.20;4.30;;;16.10;52.90;;;;;;4934004;28;20046;-81
2023/05/18 00:34:07;;;;;;;6.60;4.07;;;16.10;53.00;;;;;;4942620;28;20390;-82
2023/05/18 00:36:34;;;;;;;6.57;4.30;;;16.10;53.00;;;;;;4942232;28;20066;-82
2023/05/18 00:39:01;;;;;;;6.72;4.53;;;16.10;53.10;;;;;;4941197;28;20071;-83
2023/05/18 00:41:28;;;;;;;8.57;4.10;;;16.10;53.20;;;;;;4934935;28;20387;-83
2023/05/18 00:43:54;;;;;;;5.63;4.30;;;16.10;53.20;;;;;;4941082;28;20042;-83
2023/05/18 00:46:22;;;;;;;5.45;4.03;;;16.10;53.30;;;;;;4937683;28;20746;-83
2023/05/18 00:48:49;;;;;;;6.30;4.20;;;16.10;53.40;;;;;;4937619;28;20055;-84
2023/05/18 00:51:20;;;;;;;8.82;4.43;;;16.10;53.50;;;;;;4940306;28;20411;-81
2023/05/18 00:53:46;;;;;;;5.82;3.65;;;16.00;53.30;;;;;;4942069;28;20411;-84
2023/05/18 00:56:13;;;;;;;4.72;4.10;;;16.00;53.40;;;;;;4945728;28;20038;-84
2023/05/18 00:58:40;;;;;;;5.60;3.80;;;16.00;53.50;;;;;;4941504;28;20539;-83
2023/05/18 01:01:08;;;;;;;5.68;4.38;;;16.00;53.60;;;;;;4943856;28;20114;-83
2023/05/18 01:03:37;;;;;;;7.57;4.32;;;16.00;53.60;;;;;;4942401;28;20035;-83
2023/05/18 01:06:04;;;;;;;5.72;4.10;;;15.90;53.50;;;;;;4948381;28;20078;-83
2023/05/18 01:08:32;;;;;;;6.45;4.20;;;16.00;53.80;;;;;;4940993;28;20138;-85
2023/05/18 01:11:25;;;;;;;8.18;5.53;;;15.90;53.60;;;;;;4930866;28;20113;-84
2023/05/18 01:14:16;;;;;;;5.05;4.10;;;15.90;53.80;;;;;;4940347;28;20043;-84
2023/05/18 01:17:05;;;;;;;7.32;4.13;;;15.90;53.90;;;;;;4941395;28;20063;-82
2023/05/18 01:20:06;;;;;;;5.43;4.78;;;15.90;53.80;;;;;;4933236;28;20040;-83
2023/05/18 01:23:08;;;;;;;7.30;4.60;;;15.80;53.80;;;;;;4935367;28;20027;-85
2023/05/18 01:25:53;;;;;;;6.20;4.50;;;15.80;53.80;;;;;;4939387;28;20664;-84
2023/05/18 01:31:23;;;;;;;4.95;4.45;;;15.80;53.90;;;;;;4315948;23;20050;-72
2023/05/18 01:33:49;;;;;;;9.07;5.53;;;15.80;53.80;;;;;;4977858;28;20053;-75
2023/05/18 01:36:15;;;;;;;7.85;4.75;;;15.70;53.70;;;;;;4977684;28;20088;-72
2023/05/18 01:38:41;;;;;;;4.63;4.00;;;15.70;53.80;;;;;;4983604;28;20422;-73
2023/05/18 01:41:25;;;;;;;7.15;4.65;;;15.70;53.90;;;;;;4984275;28;20066;-73
2023/05/18 01:44:13;;;;;;;8.77;4.72;;;15.70;54.20;;;;;;4973498;28;20043;-73
2023/05/18 01:47:03;;;;;;;7.28;4.43;;;15.70;54.20;;;;;;4992133;23;20442;-82
2023/05/18 01:49:55;;;;;;;5.95;4.43;;;15.70;54.30;;;;;;4981056;28;20519;-81
2023/05/18 01:52:45;;;;;;;5.93;4.35;;;15.70;54.20;;;;;;4980849;28;20038;-79
2023/05/18 01:55:14;;;;;;;5.88;4.80;;;15.70;54.20;;;;;;4990182;28;20119;-79
2023/05/18 01:57:43;;;;;;;5.88;4.78;;;15.70;54.20;;;;;;4984170;28;20049;-80
2023/05/18 02:00:10;;;;;;;6.90;3.85;;;15.60;54.20;;;;;;4986841;28;20037;-80
2023/05/18 02:02:43;;;;;;;5.85;4.75;;;15.60;54.30;;;;;;4989131;28;20113;-80
2023/05/18 02:05:12;;;;;;;7.03;4.95;;;15.60;54.30;;;;;;4987819;28;20145;-79
2023/05/18 02:07:39;;;;;;;7.78;5.43;;;15.60;54.40;;;;;;4970670;28;20030;-80
2023/05/18 02:10:06;;;;;;;6.95;4.95;;;15.60;54.50;;;;;;4983371;28;20030;-80
2023/05/18 02:12:32;;;;;;;7.65;5.03;;;15.50;54.40;;;;;;4988911;28;20069;-81
2023/05/18 02:15:04;;;;;;;6.28;4.97;;;15.50;54.50;;;;;;4979601;28;20571;-78
2023/05/18 02:17:37;;;;;;;8.70;5.97;;;15.50;54.60;;;;;;4989123;28;20034;-81
2023/05/18 02:20:08;;;;;;;7.43;4.97;;;15.50;54.70;;;;;;5003923;28;20038;-80
2023/05/18 02:22:35;;;;;;;9.02;6.20;;;15.50;54.70;;;;;;4965746;28;20479;-81
2023/05/18 02:25:02;;;;;;;9.43;6.30;;;15.40;54.60;;;;;;4983371;28;20624;-81
2023/05/18 02:27:28;;;;;;;13.27;7.45;;;15.40;54.60;;;;;;4969565;28;20045;-80
2023/05/18 02:29:53;;;;;;;10.45;6.97;;;15.50;54.90;;;;;;4961232;28;20043;-79
2023/05/18 02:32:20;;;;;;;10.35;6.88;;;15.40;54.80;;;;;;4963789;28;20530;-79
2023/05/18 02:34:46;;;;;;;11.95;7.35;;;15.40;54.80;;;;;;4971863;28;20064;-81
2023/05/18 02:37:12;;;;;;;11.50;7.47;;;15.40;54.90;;;;;;4969279;28;20524;-80
2023/05/18 02:39:39;;;;;;;10.18;6.15;;;15.40;54.90;;;;;;4960537;28;20043;-80
2023/05/18 02:42:05;;;;;;;13.85;6.85;;;15.40;54.90;;;;;;4970160;28;20030;-80
2023/05/18 02:44:31;;;;;;;7.55;5.97;;;15.40;55.00;;;;;;4967450;28;20042;-80
2023/05/18 02:46:57;;;;;;;10.27;6.57;;;15.40;55.10;;;;;;4960195;28;20061;-80
2023/05/18 02:49:23;;;;;;;9.55;6.35;;;15.40;55.10;;;;;;4981584;28;20030;-80
2023/05/18 02:51:50;;;;;;;9.73;7.05;;;15.40;55.10;;;;;;4975132;28;20026;-80
2023/05/18 02:54:16;;;;;;;9.85;6.82;;;15.40;55.20;;;;;;4980412;28;20034;-78
2023/05/18 02:56:43;;;;;;;9.38;6.18;;;15.30;55.00;;;;;;4976341;28;20454;-78
2023/05/18 02:59:28;;;;;;;9.90;6.38;;;15.40;55.30;;;;;;4954369;28;20109;-77
2023/05/18 03:01:54;;;;;;;9.13;5.93;;;15.30;55.10;;;;;;4962626;28;20349;-77
2023/05/18 03:04:20;;;;;;;10.68;6.43;;;15.40;55.30;;;;;;4966063;28;20401;-77
2023/05/18 03:06:51;;;;;;;10.43;6.78;;;15.30;55.20;;;;;;4961780;28;20200;-77
2023/05/18 03:09:18;;;;;;;10.77;5.95;;;15.30;55.20;;;;;;4984780;28;20401;-78
2023/05/18 03:11:45;;;;;;;9.55;5.80;;;15.30;55.30;;;;;;4961604;28;20027;-77
2023/05/18 03:14:11;;;;;;;8.13;5.63;;;15.30;55.30;;;;;;4973075;28;20027;-77
2023/05/18 03:16:37;;;;;;;9.65;6.88;;;15.30;55.30;;;;;;4981749;28;20421;-77
2023/05/18 03:19:06;;;;;;;10.52;5.95;;;15.20;55.20;;;;;;4984276;28;20057;-76
2023/05/18 03:21:37;;;;;;;6.65;5.60;;;15.20;55.20;;;;;;4962897;28;20058;-77
2023/05/18 03:24:04;;;;;;;7.75;5.25;;;15.20;55.30;;;;;;4975458;28;20434;-77
2023/05/18 03:26:33;;;;;;;9.32;5.93;;;15.20;55.40;;;;;;4965401;28;20031;-81
2023/05/18 03:29:00;;;;;;;8.27;5.53;;;15.20;55.40;;;;;;4972674;28;20031;-82
2023/05/18 03:31:26;;;;;;;8.45;6.07;;;15.10;55.30;;;;;;4963782;28;20034;-83
2023/05/18 03:33:54;;;;;;;7.55;6.15;;;15.10;55.40;;;;;;4967318;28;20116;-82
2023/05/18 03:36:21;;;;;;;8.40;5.55;;;15.10;55.40;;;;;;4983050;28;20030;-82
2023/05/18 03:38:47;;;;;;;9.48;5.50;;;15.10;55.50;;;;;;4951873;28;20034;-83
2023/05/18 03:41:15;;;;;;;7.63;5.72;;;15.10;55.50;;;;;;4967514;28;20026;-82
2023/05/18 03:43:41;;;;;;;7.40;6.00;;;15.10;55.60;;;;;;4967820;28;20482;-84
2023/05/18 03:46:07;;;;;;;6.85;5.07;;;15.00;55.50;;;;;;4969177;28;20146;-83
2023/05/18 03:48:33;;;;;;;8.27;5.80;;;15.00;55.60;;;;;;4957379;28;20034;-85
2023/05/18 03:50:59;;;;;;;9.23;5.47;;;15.00;55.60;;;;;;4965667;28;20023;-84
2023/05/18 03:53:28;;;;;;;6.38;5.40;;;15.00;55.70;;;;;;4967687;28;20502;-84
2023/05/18 03:55:55;;;;;;;6.13;5.13;;;14.90;55.60;;;;;;4967188;28;20101;-85
2023/05/18 03:58:22;;;;;;;8.77;5.28;;;14.90;55.70;;;;;;4964506;28;20113;-84
2023/05/18 04:00:48;;;;;;;7.18;5.43;;;14.90;55.70;;;;;;4988602;28;20113;-82
2023/05/18 04:03:14;;;;;;;5.60;4.95;;;14.90;55.80;;;;;;4968943;28;20034;-82
2023/05/18 04:05:44;;;;;;;6.00;4.90;;;14.80;55.70;;;;;;4968600;28;20038;-82
2023/05/18 04:08:13;;;;;;;6.63;5.50;;;14.80;55.70;;;;;;4983695;28;20061;-82
2023/05/18 04:10:41;;;;;;;7.03;5.38;;;14.80;55.70;;;;;;4979542;28;20038;-81
2023/05/18 04:13:07;;;;;;;7.93;5.47;;;14.80;55.80;;;;;;4963847;28;20042;-80
2023/05/18 04:15:35;;;;;;;6.95;4.80;;;14.80;55.90;;;;;;4961423;28;20409;-80
2023/05/18 04:18:01;;;;;;;7.03;5.32;;;14.80;55.80;;;;;;4977164;28;20041;-81
2023/05/18 04:20:28;;;;;;;8.07;4.75;;;14.80;55.90;;;;;;4971912;28;20117;-81
2023/05/18 04:22:56;;;;;;;7.03;5.25;;;14.80;55.90;;;;;;4982284;28;20049;-81
2023/05/18 04:25:26;;;;;;;8.20;5.15;;;14.80;56.00;;;;;;4971388;28;20050;-80
2023/05/18 04:27:53;;;;;;;8.75;5.90;;;14.80;56.00;;;;;;4970942;28;20026;-81
2023/05/18 04:30:22;;;;;;;8.15;6.68;;;14.80;56.10;;;;;;4957440;28;20034;-81
2023/05/18 04:32:49;;;;;;;8.23;5.60;;;14.80;56.10;;;;;;4987676;28;20037;-81
2023/05/18 04:35:15;;;;;;;7.88;5.70;;;14.80;56.10;;;;;;4968295;28;20030;-82
2023/05/18 04:37:41;;;;;;;9.55;6.03;;;14.80;56.10;;;;;;4965286;28;20089;-82
2023/05/18 04:40:12;;;;;;;8.55;5.50;;;14.80;56.20;;;;;;4983639;28;20034;-82
2023/05/18 04:42:49;;;;;;;9.85;5.70;;;14.80;56.20;;;;;;4969869;28;20438;-82
2023/05/18 04:45:33;;;;;;;6.55;5.40;;;14.70;56.10;;;;;;4956385;28;20125;-82
2023/05/18 04:48:00;;;;;;;5.45;4.85;;;14.70;56.00;;;;;;4983226;28;20057;-82
2023/05/18 04:50:26;;;;;;;11.27;5.95;;;14.70;56.10;;;;;;4964252;28;20041;-84
2023/05/18 04:52:56;;;;;;;8.38;5.90;;;14.70;56.10;;;;;;4981803;28;20048;-83
2023/05/18 04:55:26;;;;;;;8.35;5.47;;;14.70;56.20;;;;;;4959735;28;20624;-83
2023/05/18 04:57:55;;;;;;;7.07;5.82;;;14.80;56.40;;;;;;4970507;28;20069;-82
2023/05/18 05:00:23;;;;;;;6.90;4.93;;;14.80;56.40;;;;;;4971774;28;20117;-83
2023/05/18 05:02:50;;;;;;;6.90;5.50;;;14.80;56.40;;;;;;4964976;28;20438;-82
2023/05/18 05:05:17;;;;;;;7.13;5.03;;;14.80;56.50;;;;;;4961979;28;20039;-81
2023/05/18 05:07:43;;;;;;;7.35;5.80;;;14.80;56.50;;;;;;4967601;28;20050;-81
2023/05/18 05:10:10;;;;;;;7.57;5.40;;;14.80;56.40;;;;;;4964245;28;20214;-82
2023/05/18 05:12:37;;;;;;;8.07;6.28;;;14.80;56.40;;;;;;4965744;28;20411;-82
2023/05/18 05:15:05;;;;;;;7.68;5.75;;;14.80;56.40;;;;;;4962647;28;20382;-81
2023/05/18 05:17:31;;;;;;;6.50;5.03;;;14.90;56.60;;;;;;4948342;28;20026;-84
2023/05/18 05:19:57;;;;;;;10.82;5.65;;;14.90;56.60;;;;;;4961780;28;20034;-83
2023/05/18 05:22:23;;;;;;;6.85;5.15;;;14.90;56.60;;;;;;4963474;28;20030;-82
2023/05/18 05:24:51;;;;;;;8.52;5.82;;;15.00;56.70;;;;;;4972172;28;20054;-79
2023/05/18 05:27:17;;;;;;;6.85;5.10;;;15.00;56.60;;;;;;4959308;28;20035;-78
2023/05/18 05:29:46;;;;;;;7.25;5.85;;;15.10;56.70;;;;;;4965902;28;20132;-81
2023/05/18 05:32:12;;;;;;;5.40;3.97;;;15.10;56.60;;;;;;4957131;28;20046;-80
2023/05/18 05:34:42;;;;;;;6.40;4.72;;;15.20;56.60;;;;;;4962067;28;20523;-79
2023/05/18 05:37:08;;;;;;;6.43;5.15;;;15.30;56.70;;;;;;4962748;28;20535;-82
2023/05/18 05:39:34;;;;;;;8.65;5.95;;;15.40;56.70;;;;;;4961484;28;20444;-89
2023/05/18 05:42:00;;;;;;;8.82;6.03;;;15.50;56.70;;;;;;4961595;28;20145;-85
2023/05/18 05:44:26;;;;;;;7.03;5.65;;;15.60;56.70;;;;;;4959496;28;20432;-87
2023/05/18 05:46:53;;;;;;;7.03;5.22;;;15.70;56.70;;;;;;4973158;28;20104;-92
2023/05/18 05:49:20;;;;;;;7.38;4.93;;;15.80;56.80;;;;;;4962808;28;20026;-86
2023/05/18 05:51:46;;;;;;;8.05;5.53;;;15.80;56.70;;;;;;4985682;28;20486;-84
2023/05/18 05:54:12;;;;;;;8.57;5.82;;;15.90;56.70;;;;;;4980264;28;20030;-92
2023/05/18 05:56:38;;;;;;;7.03;5.88;;;15.90;56.60;;;;;;4967117;28;20068;-89
2023/05/18 05:59:04;;;;;;;7.28;5.90;;;16.00;56.70;;;;;;4966929;28;20057;-86
2023/05/18 06:01:33;;;;;;;6.18;5.57;;;16.00;56.70;;;;;;4958052;28;20034;-86
2023/05/18 06:04:00;;;;;;;8.23;5.32;;;16.10;56.90;;;;;;4968894;28;20124;-88
2023/05/18 06:06:26;;;;;;;9.23;6.05;;;16.10;56.80;;;;;;4964250;28;20031;-87
2023/05/18 06:08:52;;;;;;;7.93;5.57;;;16.20;56.90;;;;;;4960157;28;20062;-84
2023/05/18 06:11:18;;;;;;;8.90;6.18;;;16.20;56.90;;;;;;4957758;28;20078;-84
2023/05/18 06:13:44;;;;;;;10.43;6.38;;;16.30;57.00;;;;;;4956816;28;20037;-84
2023/05/18 06:16:11;;;;;;;8.32;6.88;;;16.30;56.90;;;;;;4950421;28;20497;-84
2023/05/18 06:18:38;;;;;;;9.63;6.97;;;16.40;57.00;;;;;;4938721;28;20027;-84
2023/05/18 06:21:05;;;;;;;9.77;6.55;;;16.50;57.10;;;;;;4931873;28;20047;-84
2023/05/18 06:23:31;;;;;;;6.28;5.63;;;16.60;57.10;;;;;;4963367;28;20034;-79
2023/05/18 06:26:00;;;;;;;9.57;7.43;;;16.70;57.10;;;;;;4961191;28;20042;-79
2023/05/18 06:28:44;;;;;;;7.97;5.75;;;16.80;57.10;;;;;;4957767;28;20031;-77
2023/05/18 06:31:23;;;;;;;11.65;6.32;;;16.90;57.30;;;;;;4960731;28;20511;-79
2023/05/18 06:33:59;;;;;;;7.15;5.60;;;17.10;58.20;;;;;;4960989;28;20037;-80
2023/05/18 06:36:25;;;;;;;8.30;5.50;;;17.30;59.60;;;;;;4962394;28;20039;-81
2023/05/18 06:38:51;;;;;;;9.73;5.85;;;17.40;59.70;;;;;;4977507;28;20552;-80
2023/05/18 06:41:17;;;;;;;6.72;5.13;;;17.60;60.20;;;;;;4957255;28;20042;-79
2023/05/18 06:43:43;;;;;;;8.73;5.82;;;17.70;60.60;;;;;;4963513;28;20374;-78
2023/05/18 06:46:22;;;;;;;6.57;5.35;;;17.80;60.90;;;;;;4954507;28;20047;-80
2023/05/18 06:48:51;;;;;;;5.88;4.93;;;17.90;61.10;;;;;;4960302;28;20035;-79
2023/05/18 06:51:18;;;;;;;27.73;6.43;;;18.00;61.20;;;;;;4959472;28;20043;-81
2023/05/18 06:53:45;;;;;;;6.93;5.03;;;18.20;61.60;;;;;;4971048;28;20038;-79
2023/05/18 06:56:12;;;;;;;9.50;6.40;;;18.30;61.70;;;;;;4958827;28;21204;-81
2023/05/18 06:58:41;;;;;;;8.40;6.18;;;18.40;61.80;;;;;;4979540;28;20042;-82
2023/05/18 07:01:08;;;;;;;8.23;5.63;;;18.50;61.90;;;;;;4970548;28;20043;-80
2023/05/18 07:03:34;;;;;;;8.52;4.88;;;18.60;62.00;;;;;;4980828;28;20442;-80
2023/05/18 07:06:01;;;;;;;9.65;5.43;;;18.70;62.00;;;;;;4955530;28;20652;-81
2023/05/18 07:08:27;;;;;;;6.72;4.80;;;18.80;62.00;;;;;;4956872;28;20050;-80
2023/05/18 07:10:54;;;;;;;7.82;5.85;;;18.90;61.90;;;;;;4942593;28;20268;-79
2023/05/18 07:13:19;;;;;;;8.30;5.63;;;19.10;62.10;;;;;;4963858;28;20465;-80
2023/05/18 07:15:45;;;;;;;6.65;5.00;;;19.20;61.90;;;;;;4964644;28;20054;-79
2023/05/18 07:18:11;;;;;;;5.68;4.78;;;19.40;61.90;;;;;;4963679;28;20488;-80
2023/05/18 07:20:37;;;;;;;6.55;5.07;;;19.50;61.70;;;;;;4960817;28;20046;-79
2023/05/18 07:23:04;;;;;;;6.72;5.45;;;19.70;61.70;;;;;;4961756;28;20035;-80
2023/05/18 07:25:30;;;;;;;9.55;5.65;;;19.90;61.60;;;;;;4961506;28;20158;-80
2023/05/18 07:27:56;;;;;;;5.45;4.57;;;20.00;61.40;;;;;;4964000;28;20034;-80
2023/05/18 07:30:22;;;;;;;5.32;4.72;;;20.20;61.30;;;;;;4958392;28;20441;-80
2023/05/18 07:32:49;;;;;;;5.75;5.05;;;20.40;61.10;;;;;;4955313;28;20039;-80
2023/05/18 07:35:18;;;;;;;12.48;5.25;;;20.60;61.00;;;;;;4966082;28;20576;-80
2023/05/18 07:37:44;;;;;;;9.45;5.75;;;20.80;60.90;;;;;;4958947;28;20027;-80
2023/05/18 07:40:11;;;;;;;7.55;5.68;;;21.20;60.90;;;;;;4960392;28;20088;-80
2023/05/18 07:42:40;;;;;;;7.97;6.22;;;21.50;60.60;;;;;;4959253;28;20427;-78
2023/05/18 07:45:07;;;;;;;7.40;5.50;;;22.00;60.30;;;;;;4954241;28;20046;-78
2023/05/18 07:47:33;;;;;;;7.97;5.53;;;22.40;59.60;;;;;;4951664;28;20055;-81
2023/05/18 07:49:59;;;;;;;7.10;5.40;;;22.90;59.40;;;;;;4959144;28;20219;-80
2023/05/18 07:52:25;;;;;;;9.50;5.68;;;23.20;58.90;;;;;;4962500;28;20603;-82
2023/05/18 07:54:53;;;;;;;6.78;6.03;;;23.40;58.40;;;;;;4976677;28;20042;-80
2023/05/18 07:57:20;;;;;;;7.40;5.80;;;23.50;58.20;;;;;;4966495;28;20039;-81
2023/05/18 07:59:46;;;;;;;8.52;6.45;;;23.50;57.90;;;;;;4958271;28;20138;-81
2023/05/18 08:02:11;;;;;;;6.35;5.38;;;23.50;57.70;;;;;;4964645;28;20034;-79
2023/05/18 08:04:37;;;;;;;9.98;6.05;;;23.60;57.60;;;;;;4965186;28;20073;-78
2023/05/18 08:07:03;;;;;;;9.05;6.18;;;23.60;57.30;;;;;;4958750;28;20092;-81
2023/05/18 08:09:30;;;;;;;7.25;5.85;;;23.80;57.40;;;;;;4959217;28;20035;-81
2023/05/18 08:11:56;;;;;;;7.97;6.30;;;23.80;57.00;;;;;;4958746;28;20352;-83
2023/05/18 08:14:22;;;;;;;11.05;5.75;;;23.90;56.80;;;;;;4961776;28;20426;-82
2023/05/18 08:16:48;;;;;;;6.80;5.78;;;24.00;56.60;;;;;;4973977;28;20042;-82
2023/05/18 08:19:15;;;;;;;7.50;6.45;;;24.20;56.60;;;;;;4964498;28;20039;-81
2023/05/18 08:21:41;;;;;;;6.90;5.75;;;24.40;56.50;;;;;;4960525;28;20023;-79
2023/05/18 08:24:08;;;;;;;7.97;6.00;;;24.50;56.20;;;;;;4967287;28;20393;-81
2023/05/18 08:26:34;;;;;;;8.13;5.97;;;24.70;56.10;;;;;;4974381;28;20038;-79
2023/05/18 08:28:59;;;;;;;9.00;6.05;;;24.90;55.90;;;;;;4962155;28;20053;-80
2023/05/18 08:31:25;;;;;;;10.43;6.78;;;25.10;55.70;;;;;;4961969;28;20030;-80
2023/05/18 08:33:51;;;;;;;8.02;5.78;;;25.20;55.40;;;;;;4975764;28;20110;-79
2023/05/18 08:36:17;;;;;;;9.32;6.78;;;25.30;55.60;;;;;;4964524;28;20365;-78
2023/05/18 08:38:43;;;;;;;10.85;6.22;;;25.40;54.60;;;;;;4966919;28;20030;-78
2023/05/18 08:41:25;;;;;;;8.05;5.68;;;25.60;54.40;;;;;;4961720;28;20038;-79
2023/05/18 08:43:58;;;;;;;7.63;6.40;;;25.70;54.00;;;;;;4960190;28;20043;-77
2023/05/18 08:46:34;;;;;;;7.10;6.35;;;25.80;53.90;;;;;;4948233;28;20050;-77
2023/05/18 08:49:02;;;;;;;6.63;5.88;;;25.90;53.50;;;;;;4957339;28;20022;-76
2023/05/18 08:51:32;;;;;;;7.47;5.85;;;26.00;53.30;;;;;;4951197;28;20027;-79
2023/05/18 08:53:59;;;;;;;5.45;4.95;;;26.10;53.10;;;;;;4957158;28;20057;-78
2023/05/18 08:56:25;;;;;;;7.22;5.95;;;26.20;53.00;;;;;;4959796;28;20832;-78
2023/05/18 08:58:55;;;;;;;6.82;4.90;;;26.30;52.70;;;;;;4952388;28;20433;-79
2023/05/18 09:01:26;;;;;;;11.63;5.90;;;26.40;52.50;;;;;;4933652;28;20042;-78
2023/05/18 09:03:54;;;;;;;6.10;5.40;;;26.50;52.30;;;;;;4970013;28;20027;-78
2023/05/18 09:06:23;;;;;;;7.05;5.53;;;26.60;52.10;;;;;;4965644;28;20684;-78
2023/05/18 09:08:55;;;;;;;7.82;5.78;;;26.80;51.80;;;;;;4954172;28;20046;-79
2023/05/18 09:11:23;;;;;;;6.25;5.50;;;26.90;51.50;;;;;;4956247;28;20042;-79
2023/05/18 09:13:50;;;;;;;5.75;5.05;;;27.10;51.30;;;;;;4968738;28;20041;-81
2023/05/18 09:16:16;;;;;;;5.63;5.13;;;27.20;51.00;;;;;;4953891;28;20064;-80
2023/05/18 09:18:42;;;;;;;7.38;5.43;;;27.30;50.70;;;;;;4955343;28;20062;-79
2023/05/18 09:21:09;;;;;;;6.85;5.78;;;27.40;50.50;;;;;;4955900;28;20045;-81
2023/05/18 09:23:38;;;;;;;7.95;5.15;;;27.50;50.20;;;;;;4960598;28;20027;-80
2023/05/18 09:26:04;;;;;;;5.78;5.28;;;27.60;50.00;;;;;;4953524;28;20050;-80
2023/05/18 09:28:41;;;;;;;6.25;4.50;;;27.70;50.30;;;;;;4946537;28;20031;-80
2023/05/18 09:31:11;;;;;;;6.18;5.00;;;27.70;49.50;;;;;;4953530;28;20047;-80
2023/05/18 09:33:38;;;;;;;5.85;5.32;;;27.70;49.60;;;;;;4970517;28;20093;-80
2023/05/18 09:36:06;;;;;;;4.43;3.90;;;27.80;49.50;;;;;;4968379;28;20073;-79
2023/05/18 09:38:36;;;;;;;5.82;5.07;;;27.80;49.40;;;;;;4974363;28;20527;-80
2023/05/18 09:41:03;;;;;;;6.60;4.97;;;27.90;49.20;;;;;;4961086;28;20022;-80
2023/05/18 09:43:28;;;;;;;5.35;4.78;;;28.00;49.10;;;;;;4956319;28;20049;-80
2023/05/18 09:45:54;;;;;;;5.68;4.82;;;28.10;48.90;;;;;;4954495;28;20038;-81
2023/05/18 09:48:21;;;;;;;5.82;5.22;;;28.20;48.80;;;;;;4971512;28;20051;-81
2023/05/18 09:50:48;;;;;;;5.38;4.80;;;28.20;48.60;;;;;;4960963;28;20509;-79
2023/05/18 09:53:14;;;;;;;5.88;4.25;;;28.30;48.40;;;;;;4958727;28;20069;-80
2023/05/18 09:55:46;;;;;;;5.80;4.88;;;28.40;48.30;;;;;;4961157;28;20538;-80
2023/05/18 09:58:12;;;;;;;6.13;4.97;;;28.50;48.00;;;;;;4964122;28;20254;-80
2023/05/18 10:00:48;;;;;;;5.00;4.25;;;28.50;47.90;;;;;;4966249;28;20047;-80
2023/05/18 10:03:19;;;;;;;4.60;4.05;;;28.60;47.60;;;;;;4953782;28;20421;-80
2023/05/18 10:05:45;;;;;;;6.03;4.40;;;28.70;47.50;;;;;;4966017;28;20047;-80
2023/05/18 10:08:14;;;;;;;4.55;4.03;;;28.80;47.40;;;;;;4972825;28;20325;-81
2023/05/18 10:10:43;;;;;;;5.78;4.28;;;28.80;47.30;;;;;;4978822;28;20342;-80
2023/05/18 10:13:17;;;;;;;5.07;3.85;;;28.80;47.20;;;;;;4964940;28;20047;-80
2023/05/18 10:15:48;;;;;;;5.38;4.15;;;28.90;47.20;;;;;;4968988;28;20576;-79
2023/05/18 10:18:20;;;;;;;4.82;3.97;;;28.90;47.10;;;;;;4973446;28;20402;-81
2023/05/18 10:20:48;;;;;;;5.63;4.47;;;28.90;47.00;;;;;;4953576;28;20035;-82
2023/05/18 10:23:14;;;;;;;4.60;4.05;;;29.00;47.00;;;;;;4964693;28;20030;-81
2023/05/18 10:25:44;;;;;;;5.00;4.10;;;29.10;46.90;;;;;;4979446;28;20067;-81
2023/05/18 10:28:10;;;;;;;4.13;3.58;;;29.10;46.60;;;;;;4970277;28;20521;-81
2023/05/18 10:30:40;;;;;;;4.88;3.95;;;29.20;46.50;;;;;;4964602;28;20118;-81
2023/05/18 10:33:07;;;;;;;4.13;3.72;;;29.20;46.40;;;;;;4967703;28;20393;-82
2023/05/18 10:35:37;;;;;;;5.28;3.80;;;29.20;46.40;;;;;;4970893;28;20061;-81
2023/05/18 10:38:05;;;;;;;4.68;4.15;;;29.30;46.30;;;;;;4964353;28;20300;-78
2023/05/18 10:40:33;;;;;;;4.32;4.03;;;29.40;46.10;;;;;;4964381;28;20390;-78
2023/05/18 10:43:02;;;;;;;4.32;3.67;;;29.50;46.00;;;;;;4971605;28;20026;-80
2023/05/18 10:45:32;;;;;;;3.97;3.60;;;29.50;45.90;;;;;;4953241;28;20035;-82
2023/05/18 10:48:00;;;;;;;4.80;3.60;;;29.60;45.80;;;;;;4964639;28;20062;-80
2023/05/18 10:50:28;;;;;;;4.05;3.65;;;29.70;45.80;;;;;;4967538;28;20573;-84
2023/05/18 10:52:55;;;;;;;4.43;3.78;;;29.70;45.60;;;;;;4970367;28;20034;-83
2023/05/18 10:55:21;;;;;;;4.45;3.38;;;29.80;45.60;;;;;;4967148;28;20039;-89
2023/05/18 10:57:53;;;;;;;5.20;3.88;;;29.80;45.50;;;;;;4962172;28;20121;-85
2023/05/18 11:00:19;;;;;;;4.70;3.80;;;29.90;45.40;;;;;;4964715;28;20255;-87
2023/05/18 11:02:48;;;;;;;4.30;3.47;;;30.00;45.40;;;;;;4965476;28;20105;-87
2023/05/18 11:05:14;;;;;;;4.38;3.97;;;30.10;45.20;;;;;;4961916;28;20050;-86
2023/05/18 11:07:44;;;;;;;5.00;3.28;;;30.20;45.10;;;;;;4965327;28;20445;-81
2023/05/18 11:10:10;;;;;;;4.43;3.67;;;30.30;45.00;;;;;;4962461;28;20058;-82
2023/05/18 11:12:39;;;;;;;5.45;4.22;;;30.40;44.90;;;;;;4965552;28;20482;-83
2023/05/18 11:15:05;;;;;;;3.88;3.58;;;30.50;44.70;;;;;;4963473;28;20032;-81
2023/05/18 11:17:32;;;;;;;5.07;4.07;;;30.50;45.20;;;;;;4960546;28;20092;-81
2023/05/18 11:20:06;;;;;;;4.32;3.90;;;30.50;44.50;;;;;;4953969;28;20085;-82
2023/05/18 11:22:57;;;;;;;5.10;3.05;;;30.60;44.40;;;;;;4960055;28;20434;-82
2023/05/18 11:25:24;;;;;;;5.22;3.38;;;30.50;44.30;;;;;;4965131;28;20054;-85
2023/05/18 11:28:01;;;;;;;8.15;6.25;;;30.60;44.50;;;;;;4963481;28;20114;-80
2023/05/18 11:30:43;;;;;;;9.30;6.60;;;30.60;43.60;;;;;;4956815;28;20050;-89
2023/05/18 11:33:20;;;;;;;;;;;30.40;43.50;;;;;;4964519;28;20085;-86
2023/05/18 11:36:02;;;;;;;6.50;5.00;;;30.30;43.70;;;;;;4973722;28;19953;-83
2023/05/18 11:38:47;;;;;;;7.53;6.18;;;30.30;43.50;;;;;;4961567;28;20061;-85
2023/05/18 11:41:34;;;;;;;6.22;5.15;;;30.40;43.20;;;;;;4959892;28;20414;-82
2023/05/18 11:44:16;;;;;;;4.85;4.45;;;30.50;43.10;;;;;;4953394;28;20097;-85
2023/05/18 11:47:07;;;;;;;6.88;4.82;;;30.70;43.00;;;;;;4958691;28;20455;-84
2023/05/18 11:49:46;;;;;;;6.00;4.82;;;30.90;42.80;;;;;;4958867;28;20408;-84
2023/05/18 11:52:16;;;;;;;5.43;4.93;;;31.10;42.70;;;;;;4953523;28;20073;-84
2023/05/18 11:54:51;;;;;;;6.13;5.05;;;31.20;42.50;;;;;;4959643;28;20031;-84
2023/05/18 11:57:33;;;;;;;7.03;4.47;;;31.30;42.30;;;;;;4959142;28;20609;-83
2023/05/18 12:00:01;;;;;;;7.65;4.97;;;31.40;42.30;;;;;;4960322;28;20146;-85
2023/05/18 12:02:31;;;;;;;5.38;4.32;;;31.60;42.20;;;;;;4963210;28;20039;-85
2023/05/18 12:05:01;;;;;;;3.75;3.17;;;31.70;42.00;;;;;;4964089;28;20051;-80
2023/05/18 12:07:29;;;;;;;5.38;3.97;;;31.80;41.90;;;;;;4967184;28;20096;-80
2023/05/18 12:10:09;;;;;;;4.93;3.70;;;31.90;41.90;;;;;;4970011;28;20428;-81
2023/05/18 12:12:36;;;;;;;4.95;3.85;;;31.90;41.60;;;;;;4964478;28;20465;-81
2023/05/18 12:15:04;;;;;;;3.67;3.35;;;32.00;41.60;;;;;;4961219;28;20418;-81
2023/05/18 12:17:44;;;;;;;5.88;3.50;;;32.20;42.20;;;;;;4974042;28;20386;-82
2023/05/18 12:20:16;;;;;;;5.53;3.40;;;32.20;41.30;;;;;;4964896;28;20393;-82
2023/05/18 12:22:52;;;;;;;6.33;3.87;;;32.20;41.30;;;;;;4958432;28;20073;-85
2023/05/18 12:25:20;;;;;;;3.88;3.58;;;32.30;41.30;;;;;;4965494;28;20100;-81
2023/05/18 12:27:46;;;;;;;3.72;3.33;;;32.30;41.30;;;;;;4968329;28;20517;-82
2023/05/18 12:30:16;;;;;;;3.75;3.45;;;32.40;41.20;;;;;;4961663;28;20286;-84
2023/05/18 12:32:54;;;;;;;3.63;3.20;;;32.50;41.20;;;;;;4976791;28;20057;-86
2023/05/18 12:35:24;;;;;;;3.95;3.08;;;32.60;41.00;;;;;;4959888;28;20098;-84
2023/05/18 12:37:51;;;;;;;3.15;2.80;;;32.70;40.90;;;;;;4955240;28;20031;-87
2023/05/18 12:40:18;;;;;;;2.83;2.58;;;32.80;40.80;;;;;;4959340;28;20111;-86
2023/05/18 12:42:55;;;;;;;3.33;2.83;;;32.90;40.70;;;;;;4964193;28;20138;-87
2023/05/18 12:45:32;;;;;;;3.13;2.70;;;32.90;40.50;;;;;;4952261;28;20211;-87
2023/05/18 12:48:05;;;;;;;2.85;2.58;;;33.00;40.40;;;;;;4955360;28;20042;-87
2023/05/18 12:50:31;;;;;;;;;;;33.10;40.40;;;;;;4957755;28;20026;-86
2023/05/18 12:52:57;;;;;;;3.05;2.53;;;33.20;40.50;;;;;;4960230;28;19914;-86
2023/05/18 12:55:30;;;;;;;3.35;3.05;;;33.30;40.50;;;;;;4957069;28;20032;-86
2023/05/18 12:58:11;;;;;;;4.50;2.63;;;33.40;40.30;;;;;;4954727;28;20066;-86
2023/05/18 13:00:37;;;;;;;2.40;2.20;;;33.50;40.10;;;;;;4955382;28;20046;-88